createdAt,value
2023-03-23T15:58:47.683Z,19.30
2023-03-23T16:01:15.820Z,19.20
2023-03-23T16:03:50.426Z,19.20
2023-03-23T16:06:23.726Z,19.20
2023-03-23T16:08:54.270Z,19.10
2023-03-23T16:11:22.261Z,19.10
2023-03-23T16:13:49.921Z,18.90
2023-03-23T16:16:24.233Z,18.90
2023-03-23T16:18:50.896Z,18.80
2023-03-23T16:21:17.611Z,18.70
2023-03-23T16:23:46.255Z,18.70
2023-03-23T16:26:29.627Z,18.60
2023-03-23T16:30:04.218Z,18.60
2023-03-23T16:32:24.245Z,18.50
2023-03-23T16:34:50.934Z,18.40
2023-03-23T16:37:18.060Z,18.40
2023-03-23T16:39:44.720Z,18.30
2023-03-23T16:42:11.377Z,18.20
2023-03-23T16:44:37.971Z,18.10
2023-03-23T16:47:04.575Z,18.10
2023-03-23T16:49:31.408Z,18.10
2023-03-23T16:51:58.564Z,18.00
2023-03-23T16:54:25.384Z,18.00
2023-03-23T16:56:52.190Z,17.90
2023-03-23T16:59:18.957Z,17.90
2023-03-23T17:01:45.612Z,17.90
2023-03-23T17:04:12.280Z,17.80
2023-03-23T17:06:39.175Z,17.70
2023-03-23T17:09:07.287Z,17.70
2023-03-23T17:11:33.977Z,17.70
2023-03-23T17:14:01.056Z,17.60
2023-03-23T17:16:27.733Z,17.60
2023-03-23T17:18:54.503Z,17.50
2023-03-23T17:21:25.492Z,17.50
2023-03-23T17:23:52.554Z,17.40
2023-03-23T17:26:19.172Z,17.40
2023-03-23T17:28:45.989Z,17.30
2023-03-23T17:31:12.695Z,17.30
2023-03-23T17:33:39.339Z,17.20
2023-03-23T17:36:06.272Z,17.20
2023-03-23T17:38:32.934Z,17.20
2023-03-23T17:41:01.488Z,17.10
2023-03-23T17:43:28.525Z,17.10
2023-03-23T17:45:56.494Z,17.00
2023-03-23T17:48:23.413Z,17.00
2023-03-23T17:50:54.200Z,16.90
2023-03-23T17:53:20.988Z,16.90
2023-03-23T17:55:47.633Z,16.90
2023-03-23T17:58:14.362Z,16.80
2023-03-23T18:00:41.050Z,16.80
2023-03-23T18:03:07.783Z,16.70
2023-03-23T18:05:35.317Z,16.70
2023-03-23T18:08:02.072Z,16.70
2023-03-23T18:10:28.688Z,16.60
2023-03-23T18:12:55.543Z,16.60
2023-03-23T18:15:22.308Z,16.60
2023-03-23T18:17:57.262Z,16.60
2023-03-23T18:20:24.054Z,16.50
2023-03-23T18:22:50.764Z,16.50
2023-03-23T18:25:17.553Z,16.40
2023-03-23T18:27:44.728Z,16.40
2023-03-23T18:30:11.733Z,16.40
2023-03-23T18:32:41.661Z,16.30
2023-03-23T18:35:10.852Z,16.30
2023-03-23T18:37:42.908Z,16.30
2023-03-23T18:40:10.928Z,16.20
2023-03-23T18:42:39.612Z,16.20
2023-03-23T18:45:07.027Z,16.20
2023-03-23T18:47:34.058Z,16.10
2023-03-23T18:50:01.404Z,16.10
2023-03-23T18:52:30.895Z,16.10
2023-03-23T18:55:00.783Z,16.10
2023-03-23T18:57:28.184Z,16.10
2023-03-23T18:59:54.914Z,16.00
2023-03-23T19:02:21.896Z,16.00
2023-03-23T19:04:49.554Z,16.00
2023-03-23T19:07:17.567Z,15.90
2023-03-23T19:09:46.118Z,15.90
2023-03-23T19:12:13.080Z,15.90
2023-03-23T19:14:40.726Z,15.90
2023-03-23T19:17:07.956Z,15.80
2023-03-23T19:19:37.334Z,15.80
2023-03-23T19:22:05.661Z,15.80
2023-03-23T19:24:32.341Z,15.70
2023-03-23T19:26:59.882Z,15.70
2023-03-23T19:29:27.427Z,15.70
2023-03-23T19:31:56.380Z,15.70
2023-03-23T19:34:24.603Z,15.60
2023-03-23T19:36:56.334Z,15.60
2023-03-23T19:39:29.996Z,15.60
2023-03-23T19:41:56.748Z,15.60
2023-03-23T19:44:23.484Z,15.60
2023-03-23T19:46:50.549Z,15.60
2023-03-23T19:49:17.813Z,15.50
2023-03-23T19:51:44.645Z,15.50
2023-03-23T19:54:13.074Z,15.50
2023-03-23T19:56:40.058Z,15.40
2023-03-23T19:59:09.476Z,15.40
2023-03-23T20:01:36.383Z,15.40
2023-03-23T20:04:05.338Z,15.30
2023-03-23T20:06:32.466Z,15.30
2023-03-23T20:09:00.382Z,15.30
2023-03-23T20:11:28.446Z,15.30
2023-03-23T20:13:55.456Z,15.20
2023-03-23T20:16:22.453Z,15.20
2023-03-23T20:18:50.369Z,15.20
2023-03-23T20:21:22.987Z,15.20
2023-03-23T20:23:53.194Z,15.20
2023-03-23T20:26:25.661Z,15.20
2023-03-23T20:28:52.684Z,15.20
2023-03-23T20:31:26.529Z,15.20
2023-03-23T20:34:02.524Z,15.20
2023-03-23T20:36:34.798Z,15.10
2023-03-23T20:39:08.189Z,15.10
2023-03-23T20:41:36.064Z,15.10
2023-03-23T20:44:04.190Z,15.10
2023-03-23T20:46:31.024Z,15.00
2023-03-23T20:48:58.174Z,15.00
2023-03-23T20:51:25.576Z,15.00
2023-03-23T20:53:53.168Z,14.90
2023-03-23T20:56:19.950Z,14.90
2023-03-23T20:58:47.665Z,14.90
2023-03-23T21:01:15.283Z,14.90
2023-03-23T21:03:42.656Z,14.90
2023-03-23T21:06:10.766Z,14.90
2023-03-23T21:08:40.102Z,14.90
2023-03-23T21:11:08.761Z,14.80
2023-03-23T21:13:35.582Z,14.90
2023-03-23T21:16:03.929Z,14.80
2023-03-23T21:18:31.219Z,14.80
2023-03-23T21:20:58.216Z,14.80
2023-03-23T21:23:26.701Z,14.80
2023-03-23T21:25:54.811Z,14.70
2023-03-23T21:28:22.181Z,14.70
2023-03-23T21:30:52.373Z,14.80
2023-03-23T21:33:19.955Z,14.70
2023-03-23T21:35:46.945Z,14.70
2023-03-23T21:38:19.820Z,14.70
2023-03-23T21:40:47.237Z,14.70
2023-03-23T21:43:16.292Z,14.70
2023-03-23T21:45:44.477Z,14.70
2023-03-23T21:48:12.663Z,14.60
2023-03-23T21:50:44.314Z,14.60
2023-03-23T21:53:12.703Z,14.60
2023-03-23T21:55:44.026Z,14.60
2023-03-23T21:58:10.824Z,14.60
2023-03-23T22:00:37.573Z,14.60
2023-03-23T22:03:05.019Z,14.60
2023-03-23T22:05:32.213Z,14.60
2023-03-23T22:07:59.172Z,14.60
2023-03-23T22:10:25.886Z,14.60
2023-03-23T22:12:54.394Z,14.50
2023-03-23T22:15:27.732Z,14.50
2023-03-23T22:17:55.512Z,14.50
2023-03-23T22:20:22.311Z,14.50
2023-03-23T22:22:49.404Z,14.50
2023-03-23T22:25:16.093Z,14.50
2023-03-23T22:27:42.999Z,14.50
2023-03-23T22:30:10.159Z,14.50
2023-03-23T22:32:36.973Z,14.50
2023-03-23T22:35:05.882Z,14.50
2023-03-23T22:37:33.298Z,14.40
2023-03-23T22:40:00.122Z,14.40
2023-03-23T22:42:26.802Z,14.40
2023-03-23T22:44:53.376Z,14.40
2023-03-23T22:47:20.150Z,14.40
2023-03-23T22:49:46.757Z,14.40
2023-03-23T22:52:14.695Z,14.40
2023-03-23T22:54:42.564Z,14.40
2023-03-23T22:57:09.314Z,14.40
2023-03-23T22:59:35.979Z,14.40
2023-03-23T23:02:02.620Z,14.30
2023-03-23T23:04:29.811Z,14.30
2023-03-23T23:07:06.671Z,14.30
2023-03-23T23:09:39.901Z,14.30
2023-03-23T23:12:06.712Z,14.30
2023-03-23T23:14:33.434Z,14.20
2023-03-23T23:17:00.240Z,14.30
2023-03-23T23:19:27.113Z,14.30
2023-03-23T23:21:55.632Z,14.20
2023-03-23T23:24:22.582Z,14.20
2023-03-23T23:26:49.224Z,14.20
2023-03-23T23:29:16.224Z,14.20
2023-03-23T23:31:42.999Z,14.20
2023-03-23T23:34:13.197Z,14.20
2023-03-23T23:36:40.562Z,14.20
2023-03-23T23:39:07.447Z,14.20
2023-03-23T23:41:37.217Z,14.20
2023-03-23T23:44:04.338Z,14.20
2023-03-23T23:46:31.666Z,14.20
2023-03-23T23:48:59.650Z,14.20
2023-03-23T23:51:27.313Z,14.20
2023-03-23T23:53:58.402Z,14.10
2023-03-23T23:56:25.633Z,14.20
2023-03-23T23:58:52.279Z,14.10
